sensor_id;sensor_type;location;lat;lon;timestamp;pressure;altitude;pressure_sealevel;temperature;humidity
19600;BME280;9947;57.722;12.012;2022-12-29T00:01:44;99137.28;;;4.34;100.00
19600;BME280;9947;57.722;12.012;2022-12-29T00:04:13;99132.53;;;4.38;100.00
19600;BME280;9947;57.722;12.012;2022-12-29T00:06:46;99131.81;;;4.36;100.00
19600;BME280;9947;57.722;12.012;2022-12-29T00:09:15;99119.53;;;4.33;100.00
19600;BME280;9947;57.722;12.012;2022-12-29T00:11:51;99112.34;;;4.33;100.00
19600;BME280;9947;57.722;12.012;2022-12-29T00:14:24;99108.81;;;4.33;100.00
19600;BME280;9947;57.722;12.012;2022-12-29T00:17:09;99105.41;;;4.31;100.00
19600;BME280;9947;57.722;12.012;2022-12-29T00:19:42;99098.00;;;4.34;100.00
19600;BME280;9947;57.722;12.012;2022-12-29T00:22:33;99089.88;;;4.36;100.00
19600;BME280;9947;57.722;12.012;2022-12-29T00:25:24;99085.25;;;4.38;100.00
19600;BME280;9947;57.722;12.012;2022-12-29T00:28:16;99089.75;;;4.38;100.00
19600;BME280;9947;57.722;12.012;2022-12-29T00:31:13;99087.91;;;4.38;100.00
19600;BME280;9947;57.722;12.012;2022-12-29T00:34:04;99086.22;;;4.37;100.00
19600;BME280;9947;57.722;12.012;2022-12-29T00:36:55;99084.38;;;4.38;100.00
19600;BME280;9947;57.722;12.012;2022-12-29T00:39:28;99082.31;;;4.41;100.00
19600;BME280;9947;57.722;12.012;2022-12-29T00:42:13;99085.00;;;4.41;100.00
19600;BME280;9947;57.722;12.012;2022-12-29T00:45:06;99076.97;;;4.41;100.00
19600;BME280;9947;57.722;12.012;2022-12-29T00:47:39;99075.41;;;4.39;100.00
19600;BME280;9947;57.722;12.012;2022-12-29T00:50:12;99079.19;;;4.47;100.00
19600;BME280;9947;57.722;12.012;2022-12-29T00:52:38;99077.25;;;4.49;100.00
19600;BME280;9947;57.722;12.012;2022-12-29T00:55:11;99071.16;;;4.47;100.00
19600;BME280;9947;57.722;12.012;2022-12-29T00:57:38;99056.47;;;4.53;100.00
19600;BME280;9947;57.722;12.012;2022-12-29T01:00:08;99058.16;;;4.54;100.00
19600;BME280;9947;57.722;12.012;2022-12-29T01:02:48;99058.88;;;4.56;100.00
19600;BME280;9947;57.722;12.012;2022-12-29T01:05:22;99058.28;;;4.52;100.00
19600;BME280;9947;57.722;12.012;2022-12-29T01:07:48;99050.63;;;4.59;100.00
19600;BME280;9947;57.722;12.012;2022-12-29T01:10:23;99046.09;;;4.59;100.00
19600;BME280;9947;57.722;12.012;2022-12-29T01:12:55;99042.47;;;4.60;100.00
19600;BME280;9947;57.722;12.012;2022-12-29T01:15:25;99034.91;;;4.65;100.00
19600;BME280;9947;57.722;12.012;2022-12-29T01:17:58;99029.69;;;4.75;100.00
19600;BME280;9947;57.722;12.012;2022-12-29T01:20:25;99029.09;;;4.72;100.00
19600;BME280;9947;57.722;12.012;2022-12-29T01:22:58;99028.38;;;4.70;100.00
19600;BME280;9947;57.722;12.012;2022-12-29T01:25:25;99014.25;;;4.79;100.00
19600;BME280;9947;57.722;12.012;2022-12-29T01:27:58;99015.94;;;4.80;100.00
19600;BME280;9947;57.722;12.012;2022-12-29T01:30:33;99009.47;;;4.82;100.00
19600;BME280;9947;57.722;12.012;2022-12-29T01:33:07;99001.56;;;4.81;100.00
19600;BME280;9947;57.722;12.012;2022-12-29T01:35:40;99004.72;;;4.86;100.00
19600;BME280;9947;57.722;12.012;2022-12-29T01:38:07;98991.81;;;4.91;100.00
19600;BME280;9947;57.722;12.012;2022-12-29T01:40:45;98987.44;;;4.90;100.00
19600;BME280;9947;57.722;12.012;2022-12-29T01:43:13;98986.00;;;4.97;100.00
19600;BME280;9947;57.722;12.012;2022-12-29T01:45:50;98984.63;;;5.03;100.00
19600;BME280;9947;57.722;12.012;2022-12-29T01:48:24;98975.03;;;5.00;100.00
19600;BME280;9947;57.722;12.012;2022-12-29T01:50:57;98983.78;;;5.02;100.00
19600;BME280;9947;57.722;12.012;2022-12-29T01:53:32;98968.69;;;5.01;100.00
19600;BME280;9947;57.722;12.012;2022-12-29T01:56:16;98963.06;;;5.04;100.00
19600;BME280;9947;57.722;12.012;2022-12-29T01:58:55;98955.03;;;5.04;100.00
19600;BME280;9947;57.722;12.012;2022-12-29T02:01:32;98946.28;;;5.02;100.00
19600;BME280;9947;57.722;12.012;2022-12-29T02:04:01;98942.13;;;5.09;100.00
19600;BME280;9947;57.722;12.012;2022-12-29T02:06:39;98940.88;;;5.13;100.00
19600;BME280;9947;57.722;12.012;2022-12-29T02:09:17;98947.22;;;5.12;100.00
19600;BME280;9947;57.722;12.012;2022-12-29T02:11:52;98927.16;;;5.07;100.00
19600;BME280;9947;57.722;12.012;2022-12-29T02:14:25;98920.56;;;5.11;100.00
19600;BME280;9947;57.722;12.012;2022-12-29T02:17:07;98917.28;;;5.07;100.00
19600;BME280;9947;57.722;12.012;2022-12-29T02:20:06;98912.66;;;5.09;100.00
19600;BME280;9947;57.722;12.012;2022-12-29T02:22:55;98908.28;;;5.08;100.00
19600;BME280;9947;57.722;12.012;2022-12-29T02:25:53;98897.03;;;5.14;100.00
19600;BME280;9947;57.722;12.012;2022-12-29T02:28:57;98885.63;;;5.12;100.00
19600;BME280;9947;57.722;12.012;2022-12-29T02:31:32;98879.66;;;5.09;100.00
19600;BME280;9947;57.722;12.012;2022-12-29T02:34:21;98880.50;;;5.09;100.00
19600;BME280;9947;57.722;12.012;2022-12-29T02:37:04;98872.22;;;5.12;100.00
19600;BME280;9947;57.722;12.012;2022-12-29T02:39:43;98855.03;;;5.15;100.00
19600;BME280;9947;57.722;12.012;2022-12-29T02:42:24;98863.47;;;5.10;100.00
19600;BME280;9947;57.722;12.012;2022-12-29T02:45:04;98858.25;;;5.09;100.00
19600;BME280;9947;57.722;12.012;2022-12-29T02:47:39;98850.78;;;5.12;100.00
19600;BME280;9947;57.722;12.012;2022-12-29T02:50:20;98845.56;;;5.11;100.00
19600;BME280;9947;57.722;12.012;2022-12-29T02:52:59;98835.03;;;5.19;100.00
19600;BME280;9947;57.722;12.012;2022-12-29T02:55:26;98840.53;;;5.17;100.00
19600;BME280;9947;57.722;12.012;2022-12-29T02:58:14;98833.34;;;5.18;100.00
19600;BME280;9947;57.722;12.012;2022-12-29T03:01:03;98823.47;;;5.18;100.00
19600;BME280;9947;57.722;12.012;2022-12-29T03:03:48;98823.47;;;5.18;100.00
19600;BME280;9947;57.722;12.012;2022-12-29T03:06:35;98812.91;;;5.17;100.00
19600;BME280;9947;57.722;12.012;2022-12-29T03:09:22;98802.31;;;5.15;100.00
19600;BME280;9947;57.722;12.012;2022-12-29T03:12:11;98802.91;;;5.19;100.00
19600;BME280;9947;57.722;12.012;2022-12-29T03:14:52;98798.88;;;5.24;100.00
19600;BME280;9947;57.722;12.012;2022-12-29T03:17:53;98786.59;;;5.22;100.00
19600;BME280;9947;57.722;12.012;2022-12-29T03:20:30;98781.38;;;5.20;100.00
19600;BME280;9947;57.722;12.012;2022-12-29T03:23:06;98785.47;;;5.24;100.00
19600;BME280;9947;57.722;12.012;2022-12-29T03:25:35;98779.16;;;5.25;100.00
19600;BME280;9947;57.722;12.012;2022-12-29T03:28:15;98781.81;;;5.25;100.00
19600;BME280;9947;57.722;12.012;2022-12-29T03:30:58;98764.50;;;5.30;100.00
19600;BME280;9947;57.722;12.012;2022-12-29T03:33:33;98764.50;;;5.30;100.00
19600;BME280;9947;57.722;12.012;2022-12-29T03:36:12;98759.28;;;5.28;100.00
19600;BME280;9947;57.722;12.012;2022-12-29T03:38:53;98756.47;;;5.30;100.00
19600;BME280;9947;57.722;12.012;2022-12-29T03:41:27;98750.84;;;5.33;100.00
19600;BME280;9947;57.722;12.012;2022-12-29T03:44:02;98749.97;;;5.32;100.00
19600;BME280;9947;57.722;12.012;2022-12-29T03:46:29;98749.13;;;5.32;100.00
19600;BME280;9947;57.722;12.012;2022-12-29T03:49:03;98740.25;;;5.31;100.00
19600;BME280;9947;57.722;12.012;2022-12-29T03:51:31;98732.94;;;5.33;100.00
19600;BME280;9947;57.722;12.012;2022-12-29T03:54:05;98730.38;;;5.32;100.00
19600;BME280;9947;57.722;12.012;2022-12-29T03:56:32;98726.16;;;5.29;100.00
19600;BME280;9947;57.722;12.012;2022-12-29T03:59:12;98721.38;;;5.33;100.00
19600;BME280;9947;57.722;12.012;2022-12-29T04:01:39;98721.38;;;5.33;100.00
19600;BME280;9947;57.722;12.012;2022-12-29T04:04:20;98712.47;;;5.32;100.00
19600;BME280;9947;57.722;12.012;2022-12-29T04:06:55;98703.59;;;5.32;100.00
19600;BME280;9947;57.722;12.012;2022-12-29T04:09:28;98714.31;;;5.32;100.00
19600;BME280;9947;57.722;12.012;2022-12-29T04:11:56;98704.31;;;5.34;100.00
19600;BME280;9947;57.722;12.012;2022-12-29T04:14:30;98687.66;;;5.30;100.00
19600;BME280;9947;57.722;12.012;2022-12-29T04:16:57;98686.94;;;5.28;100.00
19600;BME280;9947;57.722;12.012;2022-12-29T04:19:30;98688.50;;;5.31;100.00
19600;BME280;9947;57.722;12.012;2022-12-29T04:22:05;98682.16;;;5.32;100.00
19600;BME280;9947;57.722;12.012;2022-12-29T04:24:31;98675.94;;;5.31;100.00
19600;BME280;9947;57.722;12.012;2022-12-29T04:27:05;98670.59;;;5.31;100.00
19600;BME280;9947;57.722;12.012;2022-12-29T04:29:32;98680.59;;;5.29;100.00
19600;BME280;9947;57.722;12.012;2022-12-29T04:32:06;98667.22;;;5.29;100.00
19600;BME280;9947;57.722;12.012;2022-12-29T04:34:32;98658.31;;;5.29;100.00
19600;BME280;9947;57.722;12.012;2022-12-29T04:37:14;98647.59;;;5.29;100.00
19600;BME280;9947;57.722;12.012;2022-12-29T04:39:48;98653.81;;;5.29;100.00
19600;BME280;9947;57.722;12.012;2022-12-29T04:42:15;98649.03;;;5.33;100.00
19600;BME280;9947;57.722;12.012;2022-12-29T04:44:49;98655.50;;;5.30;100.00
19600;BME280;9947;57.722;12.012;2022-12-29T04:47:16;98649.03;;;5.33;100.00
19600;BME280;9947;57.722;12.012;2022-12-29T04:49:56;98650.84;;;5.32;100.00
19600;BME280;9947;57.722;12.012;2022-12-29T04:52:31;98652.56;;;5.33;100.00
19600;BME280;9947;57.722;12.012;2022-12-29T04:55:05;98653.81;;;5.29;100.00
19600;BME280;9947;57.722;12.012;2022-12-29T04:57:32;98647.34;;;5.32;100.00
19600;BME280;9947;57.722;12.012;2022-12-29T05:00:06;98649.03;;;5.33;100.00
19600;BME280;9947;57.722;12.012;2022-12-29T05:02:35;98652.28;;;5.36;100.00
19600;BME280;9947;57.722;12.012;2022-12-29T05:05:09;98644.38;;;5.35;100.00
19600;BME280;9947;57.722;12.012;2022-12-29T05:07:44;98634.06;;;5.30;100.00
19600;BME280;9947;57.722;12.012;2022-12-29T05:10:17;98629.44;;;5.32;100.00
19600;BME280;9947;57.722;12.012;2022-12-29T05:12:51;98638.31;;;5.33;100.00
19600;BME280;9947;57.722;12.012;2022-12-29T05:15:25;98635.34;;;5.36;100.00
19600;BME280;9947;57.722;12.012;2022-12-29T05:17:52;98630.84;;;5.36;100.00
19600;BME280;9947;57.722;12.012;2022-12-29T05:20:26;98639.44;;;5.30;100.00
19600;BME280;9947;57.722;12.012;2022-12-29T05:22:55;98629.00;;;5.37;100.00
19600;BME280;9947;57.722;12.012;2022-12-29T05:25:30;98635.50;;;5.34;100.00
19600;BME280;9947;57.722;12.012;2022-12-29T05:28:04;98627.88;;;5.30;100.00
19600;BME280;9947;57.722;12.012;2022-12-29T05:30:38;98627.31;;;5.36;100.00
19600;BME280;9947;57.722;12.012;2022-12-29T05:33:12;98620.25;;;5.35;100.00
19600;BME280;9947;57.722;12.012;2022-12-29T05:35:52;98612.22;;;5.35;100.00
19600;BME280;9947;57.722;12.012;2022-12-29T05:38:27;98616.31;;;5.39;100.00
19600;BME280;9947;57.722;12.012;2022-12-29T05:41:01;98611.81;;;5.39;100.00
19600;BME280;9947;57.722;12.012;2022-12-29T05:43:35;98610.81;;;5.40;100.00
19600;BME280;9947;57.722;12.012;2022-12-29T05:46:15;98615.34;;;5.40;100.00
19600;BME280;9947;57.722;12.012;2022-12-29T05:48:49;98604.47;;;5.41;100.00
19600;BME280;9947;57.722;12.012;2022-12-29T05:51:16;98599.97;;;5.42;100.00
19600;BME280;9947;57.722;12.012;2022-12-29T05:53:51;98600.44;;;5.47;100.00
19600;BME280;9947;57.722;12.012;2022-12-29T05:56:25;98601.13;;;5.49;100.00
19600;BME280;9947;57.722;12.012;2022-12-29T05:58:52;98599.16;;;5.51;100.00
19600;BME280;9947;57.722;12.012;2022-12-29T06:01:24;98601.84;;;5.51;100.00
19600;BME280;9947;57.722;12.012;2022-12-29T06:03:59;98605.09;;;5.54;100.00
19600;BME280;9947;57.722;12.012;2022-12-29T06:06:26;98587.31;;;5.53;100.00
19600;BME280;9947;57.722;12.012;2022-12-29T06:09:01;98597.19;;;5.53;100.00
19600;BME280;9947;57.722;12.012;2022-12-29T06:11:28;98586.19;;;5.56;100.00
19600;BME280;9947;57.722;12.012;2022-12-29T06:14:02;98581.25;;;5.61;100.00
19600;BME280;9947;57.722;12.012;2022-12-29T06:16:29;98582.81;;;5.64;100.00
19600;BME280;9947;57.722;12.012;2022-12-29T06:19:02;98569.56;;;5.62;100.00
19600;BME280;9947;57.722;12.012;2022-12-29T06:21:29;98568.13;;;5.68;100.00
19600;BME280;9947;57.722;12.012;2022-12-29T06:24:05;98562.34;;;5.72;100.00
19600;BME280;9947;57.722;12.012;2022-12-29T06:26:32;98558.72;;;5.73;100.00
19600;BME280;9947;57.722;12.012;2022-12-29T06:29:05;98562.53;;;5.80;100.00
19600;BME280;9947;57.722;12.012;2022-12-29T06:31:33;98548.97;;;5.82;100.00
19600;BME280;9947;57.722;12.012;2022-12-29T06:34:06;98550.38;;;5.86;100.00
19600;BME280;9947;57.722;12.012;2022-12-29T06:36:39;98550.84;;;5.91;100.00
19600;BME280;9947;57.722;12.012;2022-12-29T06:39:08;98541.09;;;5.90;100.00
19600;BME280;9947;57.722;12.012;2022-12-29T06:41:41;98544.19;;;5.95;100.00
19600;BME280;9947;57.722;12.012;2022-12-29T06:44:14;98542.78;;;5.91;100.00
19600;BME280;9947;57.722;12.012;2022-12-29T06:46:54;98539.28;;;6.00;100.00
19600;BME280;9947;57.722;12.012;2022-12-29T06:49:28;98538.28;;;6.01;100.00
19600;BME280;9947;57.722;12.012;2022-12-29T06:51:54;98541.97;;;6.00;100.00
19600;BME280;9947;57.722;12.012;2022-12-29T06:54:25;98546.19;;;6.03;100.00
19600;BME280;9947;57.722;12.012;2022-12-29T06:56:59;98535.16;;;6.06;100.00
19600;BME280;9947;57.722;12.012;2022-12-29T06:59:25;98529.50;;;6.09;100.00
19600;BME280;9947;57.722;12.012;2022-12-29T07:01:58;98534.88;;;6.09;100.00
19600;BME280;9947;57.722;12.012;2022-12-29T07:04:32;98521.31;;;6.10;100.00
19600;BME280;9947;57.722;12.012;2022-12-29T07:06:59;98528.38;;;6.11;100.00
19600;BME280;9947;57.722;12.012;2022-12-29T07:09:34;98530.78;;;6.14;100.00
19600;BME280;9947;57.722;12.012;2022-12-29T07:12:07;98517.91;;;6.18;100.00
19600;BME280;9947;57.722;12.012;2022-12-29T07:14:34;98524.41;;;6.25;100.00
19600;BME280;9947;57.722;12.012;2022-12-29T07:17:07;98519.59;;;6.29;100.00
19600;BME280;9947;57.722;12.012;2022-12-29T07:19:47;98502.38;;;6.31;100.00
19600;BME280;9947;57.722;12.012;2022-12-29T07:22:14;98507.16;;;6.37;100.00
19600;BME280;9947;57.722;12.012;2022-12-29T07:24:49;98506.31;;;6.37;100.00
19600;BME280;9947;57.722;12.012;2022-12-29T07:27:16;98507.56;;;6.42;100.00
19600;BME280;9947;57.722;12.012;2022-12-29T07:29:49;98494.44;;;6.39;100.00
19600;BME280;9947;57.722;12.012;2022-12-29T07:32:16;98506.16;;;6.38;100.00
19600;BME280;9947;57.722;12.012;2022-12-29T07:34:48;98501.78;;;6.37;100.00
19600;BME280;9947;57.722;12.012;2022-12-29T07:37:15;98512.50;;;6.37;100.00
19600;BME280;9947;57.722;12.012;2022-12-29T07:39:50;98516.63;;;6.32;100.00
19600;BME280;9947;57.722;12.012;2022-12-29T07:42:17;98513.41;;;6.28;100.00
19600;BME280;9947;57.722;12.012;2022-12-29T07:44:51;98500.97;;;6.27;100.00
19600;BME280;9947;57.722;12.012;2022-12-29T07:47:18;98502.13;;;6.25;100.00
19600;BME280;9947;57.722;12.012;2022-12-29T07:49:58;98500.69;;;6.21;100.00
19600;BME280;9947;57.722;12.012;2022-12-29T07:52:25;98493.78;;;6.18;100.00
19600;BME280;9947;57.722;12.012;2022-12-29T07:55:00;98508.19;;;6.17;100.00
19600;BME280;9947;57.722;12.012;2022-12-29T07:57:27;98501.81;;;6.18;100.00
19600;BME280;9947;57.722;12.012;2022-12-29T08:00:00;98511.56;;;6.19;100.00
19600;BME280;9947;57.722;12.012;2022-12-29T08:02:27;98496.44;;;6.18;100.00
19600;BME280;9947;57.722;12.012;2022-12-29T08:05:00;98501.53;;;6.21;100.00
19600;BME280;9947;57.722;12.012;2022-12-29T08:07:27;98515.38;;;6.16;100.00
19600;BME280;9947;57.722;12.012;2022-12-29T08:10:02;98511.69;;;6.17;100.00
19600;BME280;9947;57.722;12.012;2022-12-29T08:12:36;98514.25;;;6.19;100.00
19600;BME280;9947;57.722;12.012;2022-12-29T08:15:11;98509.44;;;6.23;100.00
19600;BME280;9947;57.722;12.012;2022-12-29T08:17:38;98510.72;;;6.18;100.00
19600;BME280;9947;57.722;12.012;2022-12-29T08:20:12;98499.97;;;6.18;100.00
19600;BME280;9947;57.722;12.012;2022-12-29T08:22:39;98515.09;;;6.19;100.00
19600;BME280;9947;57.722;12.012;2022-12-29T08:25:14;98511.41;;;6.21;100.00
19600;BME280;9947;57.722;12.012;2022-12-29T08:27:41;98499.84;;;6.20;100.00
19600;BME280;9947;57.722;12.012;2022-12-29T08:30:15;98507.19;;;6.18;100.00
19600;BME280;9947;57.722;12.012;2022-12-29T08:32:47;98508.59;;;6.22;100.00
19600;BME280;9947;57.722;12.012;2022-12-29T08:35:21;98513.25;;;6.20;100.00
19600;BME280;9947;57.722;12.012;2022-12-29T08:37:54;98504.91;;;6.23;100.00
19600;BME280;9947;57.722;12.012;2022-12-29T08:40:29;98511.13;;;6.24;100.00
19600;BME280;9947;57.722;12.012;2022-12-29T08:42:56;98513.94;;;6.32;100.00
19600;BME280;9947;57.722;12.012;2022-12-29T08:45:29;98501.78;;;6.37;100.00
19600;BME280;9947;57.722;12.012;2022-12-29T08:48:03;98496.56;;;6.36;100.00
19600;BME280;9947;57.722;12.012;2022-12-29T08:50:36;98482.00;;;6.38;100.00
19600;BME280;9947;57.722;12.012;2022-12-29T08:53:10;98490.75;;;6.40;100.00
19600;BME280;9947;57.722;12.012;2022-12-29T08:55:46;98490.47;;;6.43;100.00
19600;BME280;9947;57.722;12.012;2022-12-29T08:58:13;98491.16;;;6.45;100.00
19600;BME280;9947;57.722;12.012;2022-12-29T09:00:46;98485.09;;;6.43;100.00
19600;BME280;9947;57.722;12.012;2022-12-29T09:03:13;98488.16;;;6.48;100.00
19600;BME280;9947;57.722;12.012;2022-12-29T09:05:48;98491.59;;;6.51;100.00
19600;BME280;9947;57.722;12.012;2022-12-29T09:08:16;98493.13;;;6.53;100.00
19600;BME280;9947;57.722;12.012;2022-12-29T09:10:51;98483.63;;;6.59;100.00
19600;BME280;9947;57.722;12.012;2022-12-29T09:13:18;98481.78;;;6.59;100.00
19600;BME280;9947;57.722;12.012;2022-12-29T09:15:57;98494.38;;;6.59;100.00
19600;BME280;9947;57.722;12.012;2022-12-29T09:18:31;98474.59;;;6.60;100.00
19600;BME280;9947;57.722;12.012;2022-12-29T09:21:05;98474.28;;;6.63;100.00
19600;BME280;9947;57.722;12.012;2022-12-29T09:23:33;98475.13;;;6.63;100.00
19600;BME280;9947;57.722;12.012;2022-12-29T09:26:08;98476.97;;;6.63;100.00
19600;BME280;9947;57.722;12.012;2022-12-29T09:28:35;98481.03;;;6.67;100.00
19600;BME280;9947;57.722;12.012;2022-12-29T09:31:10;98481.03;;;6.67;100.00
19600;BME280;9947;57.722;12.012;2022-12-29T09:33:37;98476.53;;;6.67;100.00
19600;BME280;9947;57.722;12.012;2022-12-29T09:36:11;98473.25;;;6.73;100.00
19600;BME280;9947;57.722;12.012;2022-12-29T09:38:38;98487.66;;;6.72;100.00
19600;BME280;9947;57.722;12.012;2022-12-29T09:41:18;98485.81;;;6.73;100.00
19600;BME280;9947;57.722;12.012;2022-12-29T09:44:02;98474.94;;;6.74;100.00
19600;BME280;9947;57.722;12.012;2022-12-29T09:46:40;98473.94;;;6.75;100.00
19600;BME280;9947;57.722;12.012;2022-12-29T09:49:22;98473.81;;;6.77;100.00
19600;BME280;9947;57.722;12.012;2022-12-29T09:52:03;98469.97;;;6.79;100.00
19600;BME280;9947;57.722;12.012;2022-12-29T09:54:46;98474.50;;;6.79;100.00
19600;BME280;9947;57.722;12.012;2022-12-29T09:57:20;98487.78;;;6.80;100.00
19600;BME280;9947;57.722;12.012;2022-12-29T09:59:58;98474.38;;;6.71;100.00
19600;BME280;9947;57.722;12.012;2022-12-29T10:02:38;98481.75;;;6.69;100.00
19600;BME280;9947;57.722;12.012;2022-12-29T10:05:21;98481.03;;;6.67;100.00
19600;BME280;9947;57.722;12.012;2022-12-29T10:08:10;98470.75;;;6.62;100.00
19600;BME280;9947;57.722;12.012;2022-12-29T10:10:53;98464.84;;;6.59;100.00
19600;BME280;9947;57.722;12.012;2022-12-29T10:13:38;98479.66;;;6.63;100.00
19600;BME280;9947;57.722;12.012;2022-12-29T10:16:19;98484.03;;;6.64;100.00
19600;BME280;9947;57.722;12.012;2022-12-29T10:19:15;98491.78;;;6.67;100.00
19600;BME280;9947;57.722;12.012;2022-12-29T10:21:58;98485.19;;;6.61;100.00
19600;BME280;9947;57.722;12.012;2022-12-29T10:24:35;98488.69;;;6.62;100.00
19600;BME280;9947;57.722;12.012;2022-12-29T10:27:09;98480.66;;;6.62;100.00
19600;BME280;9947;57.722;12.012;2022-12-29T10:29:48;98476.56;;;6.58;100.00
19600;BME280;9947;57.722;12.012;2022-12-29T10:32:28;98486.03;;;6.62;100.00
19600;BME280;9947;57.722;12.012;2022-12-29T10:35:11;98487.41;;;6.66;100.00
19600;BME280;9947;57.722;12.012;2022-12-29T10:37:49;98486.72;;;6.64;100.00
19600;BME280;9947;57.722;12.012;2022-12-29T10:40:27;98478.41;;;6.57;100.00
19600;BME280;9947;57.722;12.012;2022-12-29T10:42:57;98473.34;;;6.54;100.00
19600;BME280;9947;57.722;12.012;2022-12-29T10:45:33;98481.09;;;6.57;100.00
19600;BME280;9947;57.722;12.012;2022-12-29T10:48:03;98478.66;;;6.64;100.00
19600;BME280;9947;57.722;12.012;2022-12-29T10:50:43;98465.38;;;6.62;100.00
19600;BME280;9947;57.722;12.012;2022-12-29T10:53:20;98481.75;;;6.69;100.00
19600;BME280;9947;57.722;12.012;2022-12-29T10:56:05;98472.84;;;6.68;100.00
19600;BME280;9947;57.722;12.012;2022-12-29T10:58:48;98467.03;;;6.73;100.00
19600;BME280;9947;57.722;12.012;2022-12-29T11:01:18;98479.59;;;6.72;100.00
19600;BME280;9947;57.722;12.012;2022-12-29T11:03:59;98472.38;;;6.73;100.00
19600;BME280;9947;57.722;12.012;2022-12-29T11:06:36;98480.75;;;6.70;100.00
19600;BME280;9947;57.722;12.012;2022-12-29T11:09:12;98480.75;;;6.70;100.00
19600;BME280;9947;57.722;12.012;2022-12-29T11:11:48;98470.16;;;6.68;100.00
19600;BME280;9947;57.722;12.012;2022-12-29T11:14:26;98473.84;;;6.67;100.00
19600;BME280;9947;57.722;12.012;2022-12-29T11:17:00;98472.69;;;6.70;100.00
19600;BME280;9947;57.722;12.012;2022-12-29T11:19:34;98470.56;;;6.73;100.00
19600;BME280;9947;57.722;12.012;2022-12-29T11:22:20;98470.25;;;6.76;100.00
19600;BME280;9947;57.722;12.012;2022-12-29T11:24:48;98467.56;;;6.76;100.00
19600;BME280;9947;57.722;12.012;2022-12-29T11:27:24;98472.22;;;6.84;100.00
19600;BME280;9947;57.722;12.012;2022-12-29T11:29:53;98467.84;;;6.83;100.00
19600;BME280;9947;57.722;12.012;2022-12-29T11:32:50;98473.75;;;6.87;100.00
19600;BME280;9947;57.722;12.012;2022-12-29T11:35:32;98466.25;;;6.90;100.00
19600;BME280;9947;57.722;12.012;2022-12-29T11:38:00;98469.06;;;6.89;100.00
19600;BME280;9947;57.722;12.012;2022-12-29T11:40:38;98459.03;;;6.91;100.00
19600;BME280;9947;57.722;12.012;2022-12-29T11:43:06;98461.16;;;6.87;100.00
19600;BME280;9947;57.722;12.012;2022-12-29T11:45:46;98476.59;;;6.85;100.00
19600;BME280;9947;57.722;12.012;2022-12-29T11:48:24;98461.88;;;6.89;100.00
19600;BME280;9947;57.722;12.012;2022-12-29T11:51:00;98472.16;;;6.94;100.00
19600;BME280;9947;57.722;12.012;2022-12-29T11:53:39;98465.94;;;6.93;100.00
19600;BME280;9947;57.722;12.012;2022-12-29T11:56:17;98462.25;;;6.94;100.00
19600;BME280;9947;57.722;12.012;2022-12-29T11:58:49;98460.94;;;6.98;100.00
19600;BME280;9947;57.722;12.012;2022-12-29T12:01:30;98466.94;;;6.92;100.00
19600;BME280;9947;57.722;12.012;2022-12-29T12:04:11;98473.31;;;6.91;100.00
19600;BME280;9947;57.722;12.012;2022-12-29T12:06:53;98475.34;;;6.79;100.00
19600;BME280;9947;57.722;12.012;2022-12-29T12:09:34;98463.19;;;6.75;100.00
19600;BME280;9947;57.722;12.012;2022-12-29T12:12:05;98468.28;;;6.78;100.00
19600;BME280;9947;57.722;12.012;2022-12-29T12:14:49;98464.47;;;6.81;100.00
19600;BME280;9947;57.722;12.012;2022-12-29T12:17:22;98476.19;;;6.80;100.00
19600;BME280;9947;57.722;12.012;2022-12-29T12:20:14;98477.34;;;6.77;100.00
19600;BME280;9947;57.722;12.012;2022-12-29T12:22:58;98473.09;;;6.75;100.00
19600;BME280;9947;57.722;12.012;2022-12-29T12:25:38;98469.72;;;6.73;100.00
19600;BME280;9947;57.722;12.012;2022-12-29T12:28:13;98469.41;;;6.76;100.00
19600;BME280;9947;57.722;12.012;2022-12-29T12:30:55;98481.88;;;6.77;100.00
19600;BME280;9947;57.722;12.012;2022-12-29T12:33:28;98483.25;;;6.81;100.00
19600;BME280;9947;57.722;12.012;2022-12-29T12:36:17;98476.50;;;6.77;100.00
19600;BME280;9947;57.722;12.012;2022-12-29T12:38:54;98455.03;;;6.77;100.00
19600;BME280;9947;57.722;12.012;2022-12-29T12:41:43;98480.72;;;6.79;100.00
19600;BME280;9947;57.722;12.012;2022-12-29T12:44:17;98476.44;;;6.87;100.00
19600;BME280;9947;57.722;12.012;2022-12-29T12:47:20;98479.28;;;6.85;100.00
19600;BME280;9947;57.722;12.012;2022-12-29T12:50:15;98485.63;;;6.84;100.00
19600;BME280;9947;57.722;12.012;2022-12-29T12:53:08;98469.28;;;6.77;100.00
19600;BME280;9947;57.722;12.012;2022-12-29T12:55:57;98480.97;;;6.86;100.00
19600;BME280;9947;57.722;12.012;2022-12-29T12:58:43;98484.78;;;6.84;100.00
19600;BME280;9947;57.722;12.012;2022-12-29T13:01:22;98481.28;;;6.83;100.00
19600;BME280;9947;57.722;12.012;2022-12-29T13:04:41;98469.13;;;6.79;100.00
19600;BME280;9947;57.722;12.012;2022-12-29T13:07:28;98474.50;;;6.79;100.00
19600;BME280;9947;57.722;12.012;2022-12-29T13:10:25;98472.25;;;6.74;100.00
19600;BME280;9947;57.722;12.012;2022-12-29T13:13:21;98478.06;;;6.70;100.00
19600;BME280;9947;57.722;12.012;2022-12-29T13:16:04;98490.09;;;6.66;100.00
19600;BME280;9947;57.722;12.012;2022-12-29T13:18:45;98488.66;;;6.71;100.00
19600;BME280;9947;57.722;12.012;2022-12-29T13:21:38;98492.19;;;6.72;100.00
19600;BME280;9947;57.722;12.012;2022-12-29T13:24:15;98490.34;;;6.72;100.00
19600;BME280;9947;57.722;12.012;2022-12-29T13:26:59;98484.13;;;6.72;100.00
19600;BME280;9947;57.722;12.012;2022-12-29T13:29:44;98488.66;;;6.71;100.00
19600;BME280;9947;57.722;12.012;2022-12-29T13:32:20;98488.09;;;6.68;100.00
19600;BME280;9947;57.722;12.012;2022-12-29T13:35:09;98491.09;;;6.65;100.00
19600;BME280;9947;57.722;12.012;2022-12-29T13:37:45;98487.41;;;6.66;100.00
19600;BME280;9947;57.722;12.012;2022-12-29T13:40:31;98492.09;;;6.64;100.00
19600;BME280;9947;57.722;12.012;2022-12-29T13:43:01;98489.00;;;6.59;100.00
19600;BME280;9947;57.722;12.012;2022-12-29T13:45:35;98501.56;;;6.58;100.00
19600;BME280;9947;57.722;12.012;2022-12-29T13:48:15;98486.03;;;6.62;100.00